Terminal Aerodrome Forecast
Issued by NWS Green Bay, WI

Home | Current Version | Previous Version | Graphics & Text | Print | Product List | Glossary On
Versions: 1 2 3 4 5 6 7 8 9 10 11 12 13 14 15 16 17 18 19 20 21 22 23 24 25 26 27 28 29 30 31 32 33 34
000
FTUS43 KGRB 211733
TAFGRB
TAF
KGRB 211733Z 2118/2218 18005KT P6SM SCT120 BKN200
     FM212200 16007KT P6SM BKN120
     FM220000 15006KT P6SM VCSH OVC090
     FM220500 14006KT 5SM -SHRA BR VCTS OVC030CB
     FM221100 10006KT 3SM BR OVC008
     FM221500 04006KT P6SM BKN010=

USA.gov is the U.S. government's official web portal to all federal, state and local government web resources and services.